Time;durP1;ratioP1;P1;durP2;ratioP2;P2;SDS_P1;SDS_P2;PMS_P1;PMS_P2;Temp;Humidity;BMP_temperature;BMP_pressure;BME280_temperature;BME280_humidity;BME280_pressure;Samples;Min_cycle;Max_cycle;Signal;HPM_P1;HPM_P2
2021/04/16 00:00:13;;;;;;;8.27;7.28;;;3.20;99.90;;;;;;5077518;27;20346;-67
2021/04/16 00:02:52;;;;;;;9.13;7.40;;;3.20;99.90;;;;;;5082799;27;20350;-69
2021/04/16 00:05:32;;;;;;;8.32;7.53;;;3.20;99.90;;;;;;5116299;27;20751;-68
2021/04/16 00:08:19;;;;;;;10.88;7.35;;;3.10;99.90;;;;;;5081158;27;20354;-67
2021/04/16 00:11:05;;;;;;;9.80;8.83;;;3.20;99.90;;;;;;5073987;27;20389;-68
2021/04/16 00:13:44;;;;;;;9.53;8.37;;;3.30;99.90;;;;;;5076466;27;20805;-67
2021/04/16 00:16:26;;;;;;;8.40;7.57;;;3.30;99.90;;;;;;5078738;27;20358;-67
2021/04/16 00:19:05;;;;;;;8.63;7.40;;;3.30;99.90;;;;;;5088388;27;20348;-68
2021/04/16 00:21:43;;;;;;;8.35;7.20;;;3.30;99.90;;;;;;5087430;27;20352;-67
2021/04/16 00:24:22;;;;;;;8.88;7.40;;;3.20;99.90;;;;;;5088165;27;20378;-67
2021/04/16 00:27:02;;;;;;;12.35;8.65;;;3.30;99.90;;;;;;5108152;27;20351;-67
2021/04/16 00:29:41;;;;;;;8.50;7.70;;;3.30;99.90;;;;;;5075009;27;20761;-67
2021/04/16 00:32:21;;;;;;;8.57;7.68;;;3.30;99.90;;;;;;5078168;28;20349;-68
2021/04/16 00:35:02;;;;;;;9.45;8.32;;;3.30;99.90;;;;;;5088175;27;20360;-67
2021/04/16 00:37:42;;;;;;;9.20;8.30;;;3.30;99.90;;;;;;5108297;27;20404;-68
2021/04/16 00:40:27;;;;;;;10.77;8.35;;;3.20;99.90;;;;;;5088249;27;20414;-68
2021/04/16 00:43:08;;;;;;;10.15;8.68;;;3.10;99.90;;;;;;5067932;28;20349;-67
2021/04/16 00:45:47;;;;;;;11.45;8.50;;;3.20;99.90;;;;;;5085150;27;20352;-68
2021/04/16 00:48:35;;;;;;;9.43;8.43;;;3.20;99.90;;;;;;5087246;27;20352;-67
2021/04/16 00:51:26;;;;;;;10.95;7.90;;;3.20;99.90;;;;;;5088713;27;20394;-68
2021/04/16 00:54:10;;;;;;;10.02;8.40;;;3.10;99.90;;;;;;5094347;27;20359;-67
2021/04/16 00:56:52;;;;;;;10.38;8.68;;;3.20;99.90;;;;;;5076603;27;20353;-67
2021/04/16 00:59:34;;;;;;;10.35;8.60;;;3.10;99.90;;;;;;5074215;28;20297;-68
2021/04/16 01:02:13;;;;;;;10.07;8.25;;;3.10;99.90;;;;;;5088077;28;20621;-69
2021/04/16 01:04:52;;;;;;;9.43;8.30;;;3.10;99.90;;;;;;5080853;28;20306;-67
2021/04/16 01:07:32;;;;;;;10.50;8.40;;;3.10;99.90;;;;;;5086538;27;20376;-68
2021/04/16 01:10:15;;;;;;;10.25;8.18;;;3.00;99.90;;;;;;5118927;27;20302;-67
2021/04/16 01:12:53;;;;;;;8.95;8.05;;;3.00;99.90;;;;;;5126251;27;20318;-68
2021/04/16 01:15:38;;;;;;;8.30;7.28;;;3.00;99.90;;;;;;5087883;28;20327;-68
2021/04/16 01:18:26;;;;;;;11.50;8.52;;;3.00;99.90;;;;;;5128861;27;21067;-70
2021/04/16 01:21:17;;;;;;;9.65;7.88;;;3.00;99.90;;;;;;5084194;28;20335;-68
2021/04/16 01:24:03;;;;;;;9.18;7.63;;;2.90;99.90;;;;;;5087416;28;20297;-68
2021/04/16 01:26:43;;;;;;;12.48;8.52;;;3.00;99.90;;;;;;5081278;28;20302;-68
2021/04/16 01:29:24;;;;;;;8.80;7.72;;;2.90;99.90;;;;;;5114708;27;20308;-68
2021/04/16 01:32:02;;;;;;;10.70;7.85;;;2.90;99.90;;;;;;5085016;28;20297;-68
2021/04/16 01:34:42;;;;;;;11.98;8.73;;;2.90;99.90;;;;;;5082501;27;20371;-69
2021/04/16 01:37:25;;;;;;;9.15;7.53;;;2.90;99.90;;;;;;5095828;27;20334;-67
2021/04/16 01:40:08;;;;;;;9.20;7.97;;;2.90;99.90;;;;;;5067429;28;20350;-68
2021/04/16 01:42:46;;;;;;;8.00;7.18;;;2.80;99.90;;;;;;5086880;28;20296;-68
2021/04/16 01:45:28;;;;;;;8.57;7.13;;;2.80;99.90;;;;;;5087715;28;20305;-68
2021/04/16 01:48:06;;;;;;;10.35;7.90;;;2.90;99.90;;;;;;5109312;27;20333;-68
2021/04/16 01:50:46;;;;;;;9.85;7.47;;;2.90;99.90;;;;;;5087790;28;20303;-68
2021/04/16 01:53:24;;;;;;;9.88;8.10;;;2.80;99.90;;;;;;5086881;28;20303;-68
2021/04/16 01:56:03;;;;;;;9.10;7.82;;;2.80;99.90;;;;;;5073816;28;20802;-68
2021/04/16 01:58:42;;;;;;;9.65;7.82;;;2.80;99.90;;;;;;5087393;28;20304;-67
2021/04/16 02:01:22;;;;;;;10.15;8.30;;;2.80;99.90;;;;;;5119370;27;20322;-67
2021/04/16 02:04:02;;;;;;;9.68;7.70;;;2.80;99.90;;;;;;5086267;28;20300;-69
2021/04/16 02:06:43;;;;;;;9.95;7.35;;;2.80;99.90;;;;;;5087712;28;20296;-68
2021/04/16 02:09:25;;;;;;;10.00;7.85;;;2.70;99.90;;;;;;5087842;28;20629;-69
2021/04/16 02:12:08;;;;;;;10.07;7.50;;;2.70;99.90;;;;;;5084442;28;20312;-68
2021/04/16 02:14:49;;;;;;;10.43;7.85;;;2.80;99.90;;;;;;5078723;28;20303;-68
2021/04/16 02:17:31;;;;;;;11.98;7.95;;;2.70;99.90;;;;;;5109290;27;20311;-68
2021/04/16 02:20:18;;;;;;;9.95;7.78;;;2.60;99.90;;;;;;5089035;28;20310;-68
2021/04/16 02:22:58;;;;;;;10.55;7.80;;;2.60;99.90;;;;;;5088023;28;20431;-68
2021/04/16 02:25:39;;;;;;;10.25;7.72;;;2.60;99.90;;;;;;5099441;27;20308;-68
2021/04/16 02:28:19;;;;;;;8.90;7.53;;;2.60;99.90;;;;;;5123776;27;20309;-68
2021/04/16 02:30:57;;;;;;;10.13;7.30;;;2.60;99.90;;;;;;5087068;27;20372;-67
2021/04/16 02:33:37;;;;;;;10.02;7.78;;;2.60;99.90;;;;;;5077585;27;20368;-68
2021/04/16 02:36:17;;;;;;;10.02;7.47;;;2.70;99.90;;;;;;5078883;28;20663;-67
2021/04/16 02:38:57;;;;;;;9.38;7.70;;;2.70;99.90;;;;;;5108040;27;20653;-67
2021/04/16 02:41:36;;;;;;;10.27;8.00;;;2.60;99.90;;;;;;5087945;28;20307;-68
2021/04/16 02:44:17;;;;;;;11.52;8.35;;;2.60;99.90;;;;;;5088261;28;20828;-68
2021/04/16 02:46:57;;;;;;;9.65;7.63;;;2.60;99.90;;;;;;5114089;27;20299;-68
2021/04/16 02:49:36;;;;;;;11.73;8.27;;;2.60;99.90;;;;;;5117936;27;20302;-68
2021/04/16 02:52:14;;;;;;;8.60;7.57;;;2.60;99.90;;;;;;5087555;28;20810;-67
2021/04/16 02:54:53;;;;;;;12.77;9.23;;;2.60;99.90;;;;;;5088692;28;20658;-68
2021/04/16 02:57:33;;;;;;;11.20;8.27;;;2.60;99.90;;;;;;5110257;27;20107;-68
2021/04/16 03:00:17;;;;;;;10.50;8.25;;;2.60;99.90;;;;;;5080748;28;20326;-68
2021/04/16 03:02:56;;;;;;;12.82;8.77;;;2.60;99.90;;;;;;5115214;27;20303;-68
2021/04/16 03:05:35;;;;;;;12.15;9.05;;;2.60;99.90;;;;;;5123605;27;20332;-67
2021/04/16 03:08:13;;;;;;;12.30;9.40;;;2.50;99.90;;;;;;5113512;27;20295;-68
2021/04/16 03:10:53;;;;;;;11.48;8.80;;;2.50;99.90;;;;;;5088137;28;20307;-68
2021/04/16 03:13:33;;;;;;;14.77;9.20;;;2.50;99.90;;;;;;5119630;27;20837;-68
2021/04/16 03:16:13;;;;;;;13.02;9.25;;;2.50;99.90;;;;;;5094436;27;20726;-67
2021/04/16 03:18:53;;;;;;;11.77;9.05;;;2.50;99.90;;;;;;5088760;28;20615;-67
2021/04/16 03:21:32;;;;;;;17.00;8.77;;;2.50;99.90;;;;;;5081672;28;20322;-67
2021/04/16 03:24:12;;;;;;;11.68;9.10;;;2.50;99.90;;;;;;5080370;28;20311;-67
2021/04/16 03:26:52;;;;;;;12.68;9.20;;;2.50;99.90;;;;;;5117691;27;20329;-68
2021/04/16 03:29:30;;;;;;;10.43;9.07;;;2.40;99.90;;;;;;5113167;27;20323;-69
2021/04/16 03:32:08;;;;;;;10.77;7.57;;;2.50;99.90;;;;;;5065373;27;20375;-69
2021/04/16 03:34:48;;;;;;;11.35;8.50;;;2.50;99.90;;;;;;5075584;28;20316;-67
2021/04/16 03:37:28;;;;;;;10.90;8.30;;;2.50;99.90;;;;;;5111670;27;20314;-67
2021/04/16 03:40:07;;;;;;;10.82;7.72;;;2.50;99.90;;;;;;5081333;28;20309;-69
2021/04/16 03:42:46;;;;;;;12.38;8.40;;;2.60;99.90;;;;;;5118736;27;20306;-67
2021/04/16 03:45:25;;;;;;;10.27;7.90;;;2.60;99.90;;;;;;5111334;27;20299;-68
2021/04/16 03:48:04;;;;;;;9.98;7.88;;;2.60;99.90;;;;;;5081144;28;20347;-67
2021/04/16 03:50:43;;;;;;;10.77;7.93;;;2.60;99.90;;;;;;5067720;28;20849;-68
2021/04/16 03:53:24;;;;;;;10.73;8.35;;;2.60;99.90;;;;;;5087734;28;20299;-67
2021/04/16 03:56:06;;;;;;;10.00;7.40;;;2.60;99.90;;;;;;5083320;28;20340;-67
2021/04/16 03:58:46;;;;;;;8.52;7.63;;;2.60;99.90;;;;;;5080384;28;20288;-67
2021/04/16 04:01:24;;;;;;;12.25;8.60;;;2.60;99.90;;;;;;5084067;27;20376;-68
2021/04/16 04:04:03;;;;;;;11.02;8.13;;;2.70;99.90;;;;;;5111746;27;20807;-68
2021/04/16 04:06:42;;;;;;;12.90;9.38;;;2.70;99.90;;;;;;5071857;27;20376;-67
2021/04/16 04:09:22;;;;;;;11.07;9.02;;;2.70;99.90;;;;;;5110692;27;20317;-67
2021/04/16 04:12:03;;;;;;;10.70;8.05;;;2.70;99.90;;;;;;5087186;28;20303;-68
2021/04/16 04:14:41;;;;;;;10.57;8.80;;;2.70;99.90;;;;;;5071238;27;20782;-67
2021/04/16 04:17:34;;;;;;;11.02;8.52;;;2.70;99.90;;;;;;5087805;28;20302;-67
2021/04/16 04:20:22;;;;;;;10.15;8.00;;;2.60;99.90;;;;;;5059021;27;20373;-67
2021/04/16 04:23:03;;;;;;;10.63;8.10;;;2.70;99.90;;;;;;5109468;27;20299;-68
2021/04/16 04:25:42;;;;;;;9.73;7.68;;;2.70;99.90;;;;;;5074041;28;20668;-69
2021/04/16 04:28:22;;;;;;;8.35;7.40;;;2.70;99.90;;;;;;5086477;27;20388;-67
2021/04/16 04:31:01;;;;;;;12.68;9.45;;;2.70;99.90;;;;;;5078596;28;20334;-67
2021/04/16 04:33:41;;;;;;;11.32;8.73;;;2.70;99.90;;;;;;5087903;28;20297;-67
2021/04/16 04:36:21;;;;;;;9.85;8.13;;;2.70;99.90;;;;;;5116870;27;20337;-68
2021/04/16 04:39:01;;;;;;;12.85;9.40;;;2.80;99.90;;;;;;5083045;28;20663;-67
2021/04/16 04:41:42;;;;;;;13.88;8.98;;;2.70;99.90;;;;;;5110806;27;20634;-67
2021/04/16 04:44:20;;;;;;;11.40;8.77;;;2.80;99.90;;;;;;5088285;28;20296;-67
2021/04/16 04:47:00;;;;;;;13.98;9.65;;;2.80;99.90;;;;;;5088301;28;20311;-67
2021/04/16 04:49:40;;;;;;;13.00;9.93;;;2.80;99.90;;;;;;5088376;28;20144;-68
2021/04/16 04:52:30;;;;;;;14.10;10.23;;;2.80;99.90;;;;;;5087451;28;20651;-70
2021/04/16 04:55:16;;;;;;;12.98;10.27;;;2.80;99.90;;;;;;5071144;28;20332;-67
2021/04/16 04:57:57;;;;;;;13.95;10.57;;;2.70;99.90;;;;;;5087113;27;20348;-67
2021/04/16 05:00:37;;;;;;;14.70;11.18;;;2.80;99.90;;;;;;5080616;27;20354;-67
2021/04/16 05:03:15;;;;;;;15.43;10.63;;;2.70;99.90;;;;;;5129032;27;20350;-68
2021/04/16 05:05:53;;;;;;;12.75;10.38;;;2.70;99.90;;;;;;5108416;27;20351;-67
2021/04/16 05:08:31;;;;;;;15.68;11.75;;;2.80;99.90;;;;;;5088821;27;20348;-69
2021/04/16 05:11:11;;;;;;;17.15;11.77;;;2.80;99.90;;;;;;5088980;27;20344;-68
2021/04/16 05:13:53;;;;;;;13.02;10.85;;;2.90;99.90;;;;;;5088888;27;20744;-67
2021/04/16 05:16:32;;;;;;;13.25;10.30;;;2.90;99.90;;;;;;5100872;27;20772;-67
2021/04/16 05:19:11;;;;;;;14.75;10.45;;;2.90;99.90;;;;;;5088642;27;20352;-67
2021/04/16 05:21:54;;;;;;;15.52;10.85;;;2.90;99.90;;;;;;5074277;27;20350;-68
2021/04/16 05:24:35;;;;;;;15.93;10.88;;;3.00;99.90;;;;;;5072690;27;20375;-69
2021/04/16 05:27:16;;;;;;;13.57;10.32;;;2.90;99.90;;;;;;5084253;27;20715;-67
2021/04/16 05:29:54;;;;;;;14.18;10.63;;;3.00;99.90;;;;;;5074319;27;20356;-69
2021/04/16 05:32:34;;;;;;;13.05;9.70;;;3.10;99.90;;;;;;5079872;27;20349;-69
2021/04/16 05:35:14;;;;;;;14.52;10.30;;;3.20;99.90;;;;;;5078161;27;20769;-68
2021/04/16 05:37:57;;;;;;;14.30;10.52;;;3.30;99.90;;;;;;5078158;27;20806;-68
2021/04/16 05:40:35;;;;;;;13.25;9.75;;;3.40;99.90;;;;;;5108642;27;20401;-68
2021/04/16 05:43:13;;;;;;;10.75;9.20;;;3.40;99.90;;;;;;5088868;27;20360;-68
2021/04/16 05:45:52;;;;;;;9.48;8.43;;;3.60;99.90;;;;;;5068010;28;20365;-68
2021/04/16 05:48:30;;;;;;;13.63;9.55;;;3.80;99.90;;;;;;5088369;27;20706;-68
2021/04/16 05:51:10;;;;;;;13.23;9.07;;;4.10;99.90;;;;;;5079575;27;20353;-67
2021/04/16 05:53:50;;;;;;;10.82;9.27;;;4.30;99.90;;;;;;5087610;27;20360;-68
2021/04/16 05:56:29;;;;;;;10.50;8.93;;;4.50;99.90;;;;;;5079306;27;20859;-68
2021/04/16 05:59:07;;;;;;;10.25;8.50;;;4.50;99.90;;;;;;5074726;27;20368;-68
2021/04/16 06:01:46;;;;;;;9.63;8.57;;;4.60;99.90;;;;;;5078083;27;20353;-68
2021/04/16 06:04:28;;;;;;;11.73;9.52;;;4.50;99.90;;;;;;5088425;27;20349;-68
2021/04/16 06:07:27;;;;;;;11.05;8.85;;;4.50;99.90;;;;;;5088221;27;20352;-68
2021/04/16 06:10:10;;;;;;;10.55;8.63;;;4.50;99.90;;;;;;5085720;27;20722;-67
2021/04/16 06:12:50;;;;;;;10.88;8.73;;;4.50;99.90;;;;;;5087965;27;20348;-67
2021/04/16 06:15:30;;;;;;;10.32;8.18;;;4.60;99.90;;;;;;5098069;27;20410;-68
2021/04/16 06:18:09;;;;;;;9.50;8.50;;;4.60;99.90;;;;;;5084441;27;20742;-68
2021/04/16 06:20:49;;;;;;;11.88;8.65;;;4.70;99.90;;;;;;5088551;27;20757;-67
2021/04/16 06:23:28;;;;;;;9.40;8.38;;;4.80;99.90;;;;;;5128779;27;20346;-68
2021/04/16 06:26:08;;;;;;;11.45;9.18;;;4.80;99.90;;;;;;5085288;27;20839;-69
2021/04/16 06:28:46;;;;;;;11.02;9.40;;;5.00;99.90;;;;;;5084946;27;20345;-68
2021/04/16 06:31:28;;;;;;;9.82;8.60;;;5.20;99.90;;;;;;5068304;28;20407;-68
2021/04/16 06:33:56;;;;;;;10.00;8.45;;;5.20;99.90;;;;;;5066471;28;20061;-68
2021/04/16 06:36:23;;;;;;;9.70;8.70;;;5.40;99.90;;;;;;5067840;28;20056;-68
2021/04/16 06:38:52;;;;;;;9.43;8.43;;;5.50;99.90;;;;;;5066413;28;20072;-68
2021/04/16 06:41:25;;;;;;;9.60;8.60;;;5.50;99.90;;;;;;5062391;28;20158;-68
2021/04/16 06:43:56;;;;;;;9.10;8.20;;;5.50;99.90;;;;;;5050334;28;20127;-68
2021/04/16 06:46:29;;;;;;;9.05;8.15;;;5.70;99.90;;;;;;5051178;28;20041;-68
2021/04/16 06:49:04;;;;;;;8.90;7.85;;;5.80;99.90;;;;;;5065285;28;20137;-68
2021/04/16 06:51:34;;;;;;;11.15;8.65;;;5.80;99.90;;;;;;5067787;28;20047;-68
2021/04/16 06:54:06;;;;;;;10.45;9.35;;;5.90;99.90;;;;;;5065480;28;20469;-68
2021/04/16 06:56:44;;;;;;;10.75;9.65;;;5.90;99.90;;;;;;5065116;28;20066;-68
2021/04/16 06:59:17;;;;;;;11.02;9.27;;;6.00;99.90;;;;;;5066086;28;20045;-68
2021/04/16 07:02:10;;;;;;;9.18;8.27;;;6.00;99.90;;;;;;5067877;28;20048;-68
2021/04/16 07:04:41;;;;;;;9.40;8.52;;;6.10;99.90;;;;;;5056989;28;20051;-68
2021/04/16 07:07:19;;;;;;;9.38;8.57;;;6.30;99.90;;;;;;5063190;28;20072;-68
2021/04/16 07:09:53;;;;;;;13.27;9.98;;;6.40;99.90;;;;;;5060862;28;20037;-68
2021/04/16 07:12:21;;;;;;;10.25;8.88;;;6.50;99.90;;;;;;5066550;28;20099;-68
2021/04/16 07:14:49;;;;;;;11.50;9.77;;;6.40;99.90;;;;;;5065988;28;20053;-68
2021/04/16 07:17:20;;;;;;;11.38;9.90;;;6.50;99.90;;;;;;5081196;28;20076;-68
2021/04/16 07:19:49;;;;;;;10.33;9.20;;;6.50;99.90;;;;;;5067583;28;20162;-68
2021/04/16 07:22:21;;;;;;;10.77;9.75;;;6.70;99.90;;;;;;5066164;28;20136;-70
2021/04/16 07:24:50;;;;;;;11.10;9.00;;;6.80;99.90;;;;;;5053716;28;20106;-67
2021/04/16 07:27:20;;;;;;;10.88;9.55;;;6.90;99.90;;;;;;5047658;28;20049;-67
2021/04/16 07:29:56;;;;;;;10.40;9.40;;;6.80;99.90;;;;;;5052925;28;20045;-67
2021/04/16 07:32:29;;;;;;;10.00;9.10;;;7.10;99.90;;;;;;5051715;28;20045;-67
2021/04/16 07:35:22;;;;;;;9.80;9.00;;;7.10;99.90;;;;;;5054775;28;20041;-67
2021/04/16 07:37:59;;;;;;;11.57;10.50;;;7.20;99.90;;;;;;5052041;28;20054;-68
2021/04/16 07:40:37;;;;;;;10.70;9.70;;;7.20;99.90;;;;;;5058637;28;20049;-67
2021/04/16 07:43:05;;;;;;;12.65;11.45;;;7.20;99.90;;;;;;5040953;28;20049;-67
2021/04/16 07:45:49;;;;;;;11.15;9.95;;;7.20;99.90;;;;;;5044183;28;20082;-67
2021/04/16 07:48:19;;;;;;;10.27;9.38;;;7.30;99.90;;;;;;5043575;28;20099;-67
2021/04/16 07:50:52;;;;;;;11.25;10.15;;;7.30;99.90;;;;;;5037662;28;20041;-67
2021/04/16 07:53:41;;;;;;;12.00;10.85;;;7.50;99.90;;;;;;5040140;28;20134;-68
2021/04/16 07:56:17;;;;;;;13.00;11.55;;;7.80;99.90;;;;;;5048175;28;20045;-68
2021/04/16 07:58:47;;;;;;;14.27;12.98;;;8.10;99.90;;;;;;5050009;28;20083;-68
2021/04/16 08:01:26;;;;;;;14.10;12.80;;;8.50;99.90;;;;;;5038849;28;20055;-68
2021/04/16 08:04:20;;;;;;;12.13;10.93;;;8.60;99.90;;;;;;5040881;28;20061;-68
2021/04/16 08:06:52;;;;;;;12.68;11.45;;;8.70;99.90;;;;;;5049147;28;20128;-68
2021/04/16 08:09:25;;;;;;;12.40;11.30;;;8.60;99.90;;;;;;5052882;28;20061;-68
2021/04/16 08:12:00;;;;;;;10.85;9.85;;;8.70;99.90;;;;;;5050814;28;20072;-68
2021/04/16 08:14:31;;;;;;;12.13;10.93;;;8.70;99.90;;;;;;5051917;28;20080;-68
2021/04/16 08:17:02;;;;;;;11.90;10.80;;;8.80;99.90;;;;;;5039044;28;20571;-68
2021/04/16 08:19:36;;;;;;;12.30;11.20;;;8.60;99.90;;;;;;5032966;28;20404;-68
2021/04/16 08:22:16;;;;;;;12.75;11.55;;;8.70;99.90;;;;;;5032954;28;20449;-68
2021/04/16 08:24:59;;;;;;;13.00;11.70;;;8.60;99.90;;;;;;5031292;28;20091;-68
2021/04/16 08:27:51;;;;;;;11.63;10.52;;;8.50;99.90;;;;;;5047433;28;20060;-68
2021/04/16 08:30:47;;;;;;;11.48;10.38;;;8.60;99.90;;;;;;5041542;28;20128;-68
2021/04/16 08:33:40;;;;;;;11.60;10.50;;;8.50;99.90;;;;;;5044500;28;20077;-67
2021/04/16 08:36:31;;;;;;;11.50;10.43;;;8.20;99.90;;;;;;5040514;28;20045;-67
2021/04/16 08:39:29;;;;;;;11.45;10.35;;;8.10;99.90;;;;;;5050302;28;20068;-67
2021/04/16 08:42:07;;;;;;;11.73;10.63;;;8.10;99.90;;;;;;5049191;28;20135;-67
2021/04/16 08:44:42;;;;;;;11.88;10.75;;;8.20;99.90;;;;;;5041205;28;20078;-67
2021/04/16 08:47:30;;;;;;;10.57;9.50;;;8.40;99.90;;;;;;5048556;28;20563;-68
2021/04/16 08:50:00;;;;;;;11.65;10.45;;;8.30;99.90;;;;;;5042346;28;20049;-68
2021/04/16 08:52:38;;;;;;;11.70;10.43;;;8.40;99.90;;;;;;5050493;28;20135;-68
2021/04/16 08:55:19;;;;;;;10.52;9.52;;;8.50;99.90;;;;;;5050808;28;20080;-68
2021/04/16 08:58:16;;;;;;;9.57;8.68;;;8.60;99.90;;;;;;5040651;28;20037;-68
2021/04/16 09:00:50;;;;;;;10.20;9.27;;;8.60;99.90;;;;;;5048540;28;20502;-68
2021/04/16 09:03:26;;;;;;;10.05;8.95;;;8.90;99.90;;;;;;5067823;28;20135;-68
2021/04/16 09:06:03;;;;;;;9.40;8.50;;;9.20;99.90;;;;;;5068033;28;20057;-68
2021/04/16 09:08:38;;;;;;;9.93;8.98;;;9.50;99.90;;;;;;5063824;28;20143;-68
2021/04/16 09:11:07;;;;;;;9.80;8.93;;;9.70;99.90;;;;;;5068000;28;20516;-68
2021/04/16 09:13:36;;;;;;;10.45;9.55;;;9.70;99.90;;;;;;5039967;28;20048;-68
2021/04/16 09:16:36;;;;;;;10.98;9.90;;;9.60;99.90;;;;;;5056181;28;20079;-68
2021/04/16 09:19:24;;;;;;;11.43;10.32;;;9.70;99.90;;;;;;5068423;28;20071;-68
2021/04/16 09:22:24;;;;;;;11.25;10.25;;;9.70;99.90;;;;;;5054419;28;20057;-68
2021/04/16 09:24:59;;;;;;;12.27;11.15;;;9.60;99.90;;;;;;5051474;28;20044;-68
2021/04/16 09:27:26;;;;;;;11.57;10.50;;;9.40;99.90;;;;;;5067632;28;20135;-68
2021/04/16 09:30:29;;;;;;;10.77;9.88;;;9.10;99.90;;;;;;5067346;28;20041;-68
2021/04/16 09:33:43;;;;;;;10.90;10.00;;;9.10;99.90;;;;;;5063988;28;20044;-68
2021/04/16 09:36:27;;;;;;;10.90;9.90;;;9.10;99.90;;;;;;5050797;28;20054;-68
2021/04/16 09:38:57;;;;;;;10.20;9.35;;;9.00;99.90;;;;;;5049772;28;20060;-68
2021/04/16 09:41:26;;;;;;;10.95;9.80;;;9.00;99.90;;;;;;5048172;28;20118;-68
2021/04/16 09:43:56;;;;;;;10.63;9.65;;;8.90;99.90;;;;;;5050486;28;20052;-68
2021/04/16 09:46:32;;;;;;;9.88;8.98;;;9.00;99.90;;;;;;5030470;28;20144;-68
2021/04/16 09:49:09;;;;;;;8.75;7.95;;;9.40;99.90;;;;;;5047529;28;20056;-68
2021/04/16 09:51:40;;;;;;;10.02;9.02;;;9.80;99.90;;;;;;5050294;28;20409;-68
2021/04/16 09:54:10;;;;;;;9.85;8.95;;;10.20;99.90;;;;;;5048233;28;20065;-69
2021/04/16 09:57:03;;;;;;;9.00;8.20;;;10.40;99.90;;;;;;5038660;28;20048;-68
2021/04/16 09:59:33;;;;;;;9.55;8.70;;;10.30;99.90;;;;;;5041782;28;20072;-69
2021/04/16 10:02:16;;;;;;;11.05;9.95;;;9.90;99.90;;;;;;5042802;28;20566;-68
2021/04/16 10:05:09;;;;;;;11.05;9.95;;;10.00;99.90;;;;;;5046490;28;20053;-68
2021/04/16 10:07:51;;;;;;;9.10;8.23;;;10.00;99.90;;;;;;5046535;28;20056;-68
2021/04/16 10:10:35;;;;;;;;;;;9.90;99.90;;;;;;5050365;28;20136;-68
2021/04/16 10:13:12;;;;;;;10.10;9.20;;;9.40;99.90;;;;;;5048653;28;19924;-68
2021/04/16 10:15:42;;;;;;;9.60;8.80;;;9.20;99.90;;;;;;5044283;28;20470;-68
2021/04/16 10:18:19;;;;;;;10.38;9.32;;;9.20;99.90;;;;;;5048658;28;20052;-68
2021/04/16 10:20:54;;;;;;;9.70;8.80;;;9.20;99.90;;;;;;5048928;28;20415;-68
2021/04/16 10:23:33;;;;;;;10.65;9.75;;;9.30;99.90;;;;;;5048629;28;20110;-68
2021/04/16 12:38:37;;;;;;;11.38;10.15;;;9.10;99.90;;;;;;5065479;28;20076;-68
2021/04/16 12:41:21;;;;;;;11.38;10.35;;;9.10;99.90;;;;;;5098215;27;20362;-68
2021/04/16 12:43:59;;;;;;;11.23;10.32;;;9.10;99.90;;;;;;5083711;27;20349;-67
2021/04/16 12:46:39;;;;;;;11.55;10.55;;;9.20;99.90;;;;;;5103379;27;20402;-68
2021/04/16 12:49:18;;;;;;;12.05;10.75;;;9.10;99.90;;;;;;5086894;27;20629;-68
2021/04/16 12:51:58;;;;;;;12.07;10.98;;;9.20;99.90;;;;;;5112532;27;20723;-68
2021/04/16 12:54:38;;;;;;;12.65;11.35;;;9.10;99.90;;;;;;5087149;27;20354;-69
2021/04/16 12:57:17;;;;;;;12.50;11.30;;;9.00;99.90;;;;;;5086120;27;20405;-69
2021/04/16 12:59:56;;;;;;;12.63;11.43;;;8.70;99.90;;;;;;5127849;27;20991;-68
2021/04/16 13:02:35;;;;;;;12.18;10.85;;;8.50;99.90;;;;;;5087973;27;20378;-67
2021/04/16 13:05:16;;;;;;;12.77;11.40;;;8.40;99.90;;;;;;5088043;27;20348;-67
2021/04/16 13:07:56;;;;;;;14.60;11.93;;;8.50;99.90;;;;;;5086186;27;20344;-69
2021/04/16 13:10:34;;;;;;;12.85;11.65;;;8.40;99.90;;;;;;5088561;28;20356;-67
2021/04/16 13:13:13;;;;;;;13.00;11.70;;;8.30;99.90;;;;;;5087873;27;20353;-67
2021/04/16 13:15:55;;;;;;;12.52;11.23;;;8.30;99.90;;;;;;5120198;27;20354;-68
2021/04/16 13:18:36;;;;;;;12.88;11.57;;;8.40;99.90;;;;;;5072716;27;20469;-68
2021/04/16 13:21:23;;;;;;;12.30;11.10;;;8.60;99.90;;;;;;5127511;27;20366;-67
2021/04/16 13:24:03;;;;;;;12.65;11.45;;;8.60;99.90;;;;;;5078529;27;20425;-67
2021/04/16 13:26:42;;;;;;;12.88;11.57;;;8.40;99.90;;;;;;5080883;28;20302;-68
2021/04/16 13:29:22;;;;;;;12.93;11.60;;;8.60;99.90;;;;;;5080675;27;20521;-68
2021/04/16 13:32:01;;;;;;;12.40;11.23;;;8.70;99.90;;;;;;5086750;27;20359;-68
2021/04/16 13:34:42;;;;;;;12.55;10.80;;;8.80;99.90;;;;;;5082816;27;20409;-67
2021/04/16 13:37:24;;;;;;;12.38;11.18;;;8.90;99.90;;;;;;5080301;27;20372;-68
2021/04/16 13:40:03;;;;;;;11.57;10.32;;;9.00;99.90;;;;;;5068284;27;20495;-68
2021/04/16 13:44:25;;;;;;;11.32;10.32;;;9.10;99.90;;;;;;5086945;27;20805;-68
2021/04/16 13:47:05;;;;;;;14.02;12.63;;;8.90;99.90;;;;;;5083332;27;20704;-68
2021/04/16 13:49:45;;;;;;;13.32;12.10;;;8.70;99.90;;;;;;5087683;27;20345;-68
2021/04/16 13:52:26;;;;;;;12.02;10.93;;;8.60;99.90;;;;;;5109529;27;20322;-67
2021/04/16 13:55:05;;;;;;;12.52;11.23;;;8.70;99.90;;;;;;5087235;27;20348;-68
2021/04/16 13:57:56;;;;;;;11.98;10.88;;;8.60;99.90;;;;;;5129000;27;20676;-67
2021/04/16 14:00:36;;;;;;;12.15;10.85;;;8.60;99.90;;;;;;5074601;27;21024;-68
2021/04/16 14:03:28;;;;;;;12.52;11.35;;;8.50;99.90;;;;;;5088333;27;20348;-67
2021/04/16 14:06:16;;;;;;;11.77;10.57;;;8.60;99.90;;;;;;5087972;28;20301;-69
2021/04/16 14:08:55;;;;;;;11.85;10.75;;;8.80;99.90;;;;;;5068756;28;20064;-69
2021/04/16 14:11:23;;;;;;;11.95;10.85;;;9.00;99.90;;;;;;5066624;28;20517;-69
2021/04/16 14:13:49;;;;;;;11.82;10.73;;;8.70;99.90;;;;;;5066606;28;20094;-68
2021/04/16 14:16:28;;;;;;;12.52;11.35;;;8.70;99.90;;;;;;5065805;28;20044;-68
2021/04/16 14:18:58;;;;;;;11.45;10.45;;;8.70;99.90;;;;;;5057420;28;20432;-68
2021/04/16 14:21:26;;;;;;;12.02;10.93;;;8.70;99.90;;;;;;5063185;28;20060;-69
2021/04/16 14:23:54;;;;;;;12.20;11.10;;;8.70;99.90;;;;;;5084388;28;20044;-68
2021/04/16 14:26:21;;;;;;;13.35;12.15;;;8.70;99.90;;;;;;5048433;28;20128;-68
2021/04/16 14:28:49;;;;;;;13.20;12.00;;;8.60;99.90;;;;;;5060298;28;20409;-68
2021/04/16 14:31:15;;;;;;;11.60;10.60;;;8.50;99.90;;;;;;5057110;28;20091;-68
2021/04/16 14:33:43;;;;;;;11.98;10.88;;;8.50;99.90;;;;;;5060728;28;20061;-68
2021/04/16 14:36:30;;;;;;;12.38;10.40;;;8.50;99.90;;;;;;5044293;28;20974;-69
2021/04/16 14:38:57;;;;;;;12.00;10.65;;;8.40;99.90;;;;;;5046807;28;20053;-69
2021/04/16 14:41:28;;;;;;;10.95;9.95;;;8.30;99.90;;;;;;5056536;28;20132;-69
2021/04/16 14:43:55;;;;;;;12.35;10.60;;;8.30;99.90;;;;;;5064518;28;20048;-68
2021/04/16 14:46:22;;;;;;;11.25;10.25;;;8.30;99.90;;;;;;5065023;28;20077;-68
2021/04/16 14:48:49;;;;;;;12.85;11.55;;;8.30;99.90;;;;;;5047502;28;20492;-68
2021/04/16 14:51:16;;;;;;;12.07;10.90;;;8.20;99.90;;;;;;5048620;28;20045;-68
2021/04/16 14:53:47;;;;;;;11.35;10.25;;;8.00;99.90;;;;;;5047231;28;20081;-68
2021/04/16 14:56:16;;;;;;;12.32;11.02;;;7.90;99.90;;;;;;5063045;28;20102;-67
2021/04/16 14:58:57;;;;;;;12.20;11.00;;;7.90;99.90;;;;;;5063414;28;20060;-68
2021/04/16 15:01:24;;;;;;;11.95;10.75;;;7.90;99.90;;;;;;5063301;28;20064;-68
2021/04/16 15:03:55;;;;;;;12.50;11.20;;;7.80;99.90;;;;;;5063876;28;20150;-68
2021/04/16 15:06:26;;;;;;;12.20;10.35;;;7.80;99.90;;;;;;5050080;28;20399;-68
2021/04/16 15:09:10;;;;;;;11.90;10.70;;;7.80;99.90;;;;;;5063397;28;20057;-68
2021/04/16 15:11:43;;;;;;;12.73;11.52;;;7.80;99.90;;;;;;5062814;28;20188;-70
2021/04/16 15:14:21;;;;;;;12.50;11.30;;;7.80;99.90;;;;;;5063079;28;20055;-67
2021/04/16 15:16:51;;;;;;;11.23;10.20;;;7.70;99.90;;;;;;5036090;28;20095;-67
2021/04/16 15:19:34;;;;;;;12.80;11.30;;;7.60;99.90;;;;;;5027788;28;20053;-67
2021/04/16 15:22:09;;;;;;;11.77;10.63;;;7.50;99.90;;;;;;5036310;28;20415;-68
2021/04/16 15:24:39;;;;;;;11.93;10.73;;;7.60;99.90;;;;;;5041241;28;20067;-67
2021/04/16 15:27:06;;;;;;;11.68;10.57;;;7.70;99.90;;;;;;5032973;28;20499;-68
2021/04/16 15:29:42;;;;;;;12.15;10.95;;;7.80;99.90;;;;;;5043083;28;20049;-69
2021/04/16 15:32:19;;;;;;;12.98;11.10;;;8.00;99.90;;;;;;5038339;28;20119;-67
2021/04/16 15:46:22;;;;;;;13.93;11.55;;;7.90;99.90;;;;;;5042971;28;20069;-69
2021/04/16 15:48:49;;;;;;;13.27;11.18;;;7.80;99.90;;;;;;5029311;28;20042;-67
2021/04/16 15:51:19;;;;;;;13.65;12.20;;;7.70;99.90;;;;;;5043184;28;20081;-69
2021/04/16 15:53:48;;;;;;;12.63;11.25;;;7.80;99.90;;;;;;5017922;28;20050;-69
2021/04/16 15:56:19;;;;;;;12.38;10.93;;;7.70;99.90;;;;;;5033561;28;20057;-68
2021/04/16 15:58:46;;;;;;;13.02;11.73;;;8.00;99.90;;;;;;5034833;28;20061;-68
2021/04/16 16:01:19;;;;;;;12.52;11.32;;;8.00;99.90;;;;;;5037319;28;20100;-68
2021/04/16 16:03:47;;;;;;;13.90;12.07;;;8.10;99.90;;;;;;5025074;28;20041;-68
2021/04/16 16:06:14;;;;;;;12.10;10.90;;;8.00;99.90;;;;;;5041495;28;20049;-69
2021/04/16 16:08:41;;;;;;;12.57;11.38;;;8.00;99.90;;;;;;5031802;28;20049;-68